sensor_id;sensor_type;location;lat;lon;timestamp;P1;durP1;ratioP1;P2;durP2;ratioP2
56581;SDS011;42463;52.214;21.238;2023-04-01T00:01:22;15.90;;;9.60;;
56581;SDS011;42463;52.214;21.238;2023-04-01T00:03:28;13.10;;;9.40;;
56581;SDS011;42463;52.214;21.238;2023-04-01T00:05:35;14.80;;;9.60;;
56581;SDS011;42463;52.214;21.238;2023-04-01T00:07:41;14.50;;;8.90;;
56581;SDS011;42463;52.214;21.238;2023-04-01T00:09:47;15.40;;;9.10;;
56581;SDS011;42463;52.214;21.238;2023-04-01T00:11:53;15.30;;;10.60;;
56581;SDS011;42463;52.214;21.238;2023-04-01T00:13:58;15.40;;;9.50;;
56581;SDS011;42463;52.214;21.238;2023-04-01T00:16:05;17.70;;;10.10;;
56581;SDS011;42463;52.214;21.238;2023-04-01T00:18:11;16.30;;;9.30;;
56581;SDS011;42463;52.214;21.238;2023-04-01T00:20:17;14.70;;;9.60;;
56581;SDS011;42463;52.214;21.238;2023-04-01T00:22:23;13.50;;;9.60;;
56581;SDS011;42463;52.214;21.238;2023-04-01T00:24:29;14.50;;;9.80;;
56581;SDS011;42463;52.214;21.238;2023-04-01T00:26:36;16.20;;;10.20;;
56581;SDS011;42463;52.214;21.238;2023-04-01T00:28:41;15.40;;;9.80;;
56581;SDS011;42463;52.214;21.238;2023-04-01T00:30:47;18.00;;;10.50;;
56581;SDS011;42463;52.214;21.238;2023-04-01T00:32:53;18.90;;;9.80;;
56581;SDS011;42463;52.214;21.238;2023-04-01T00:34:58;14.90;;;10.30;;
56581;SDS011;42463;52.214;21.238;2023-04-01T00:37:04;12.00;;;9.00;;
56581;SDS011;42463;52.214;21.238;2023-04-01T00:39:10;16.80;;;10.50;;
56581;SDS011;42463;52.214;21.238;2023-04-01T00:41:16;17.10;;;10.00;;
56581;SDS011;42463;52.214;21.238;2023-04-01T00:43:23;17.60;;;9.70;;
56581;SDS011;42463;52.214;21.238;2023-04-01T00:45:34;13.70;;;10.10;;
56581;SDS011;42463;52.214;21.238;2023-04-01T00:47:41;16.80;;;10.30;;
56581;SDS011;42463;52.214;21.238;2023-04-01T00:49:48;16.80;;;10.40;;
56581;SDS011;42463;52.214;21.238;2023-04-01T00:51:56;14.70;;;9.80;;
56581;SDS011;42463;52.214;21.238;2023-04-01T00:54:04;16.10;;;9.60;;
56581;SDS011;42463;52.214;21.238;2023-04-01T00:56:11;15.80;;;9.30;;
56581;SDS011;42463;52.214;21.238;2023-04-01T00:58:20;17.10;;;10.70;;
56581;SDS011;42463;52.214;21.238;2023-04-01T01:03:41;15.90;;;10.10;;
56581;SDS011;42463;52.214;21.238;2023-04-01T01:06:02;14.70;;;10.10;;
56581;SDS011;42463;52.214;21.238;2023-04-01T01:08:15;17.90;;;10.80;;
56581;SDS011;42463;52.214;21.238;2023-04-01T01:12:35;14.80;;;9.70;;
56581;SDS011;42463;52.214;21.238;2023-04-01T01:14:51;18.50;;;11.40;;
56581;SDS011;42463;52.214;21.238;2023-04-01T01:17:06;15.10;;;10.80;;
56581;SDS011;42463;52.214;21.238;2023-04-01T01:19:29;16.70;;;10.50;;
56581;SDS011;42463;52.214;21.238;2023-04-01T01:21:55;16.50;;;10.40;;
56581;SDS011;42463;52.214;21.238;2023-04-01T01:29:12;18.50;;;9.90;;
56581;SDS011;42463;52.214;21.238;2023-04-01T01:31:32;16.60;;;10.50;;
56581;SDS011;42463;52.214;21.238;2023-04-01T01:33:44;21.30;;;10.90;;
56581;SDS011;42463;52.214;21.238;2023-04-01T01:35:59;16.50;;;10.30;;
56581;SDS011;42463;52.214;21.238;2023-04-01T01:38:10;17.40;;;10.50;;
56581;SDS011;42463;52.214;21.238;2023-04-01T01:40:29;13.80;;;9.80;;
56581;SDS011;42463;52.214;21.238;2023-04-01T01:42:37;17.40;;;11.10;;
56581;SDS011;42463;52.214;21.238;2023-04-01T01:44:47;20.50;;;10.50;;
56581;SDS011;42463;52.214;21.238;2023-04-01T01:46:55;17.70;;;11.20;;
56581;SDS011;42463;52.214;21.238;2023-04-01T01:49:01;16.70;;;11.20;;
56581;SDS011;42463;52.214;21.238;2023-04-01T01:51:09;16.30;;;10.30;;
56581;SDS011;42463;52.214;21.238;2023-04-01T01:53:15;17.40;;;10.70;;
56581;SDS011;42463;52.214;21.238;2023-04-01T01:55:25;16.90;;;10.50;;
56581;SDS011;42463;52.214;21.238;2023-04-01T01:57:34;17.90;;;10.70;;
56581;SDS011;42463;52.214;21.238;2023-04-01T01:59:49;18.80;;;10.60;;
56581;SDS011;42463;52.214;21.238;2023-04-01T02:02:02;18.00;;;11.80;;
56581;SDS011;42463;52.214;21.238;2023-04-01T02:04:11;18.70;;;11.40;;
56581;SDS011;42463;52.214;21.238;2023-04-01T02:06:21;17.70;;;10.40;;
56581;SDS011;42463;52.214;21.238;2023-04-01T02:08:29;16.20;;;10.00;;
56581;SDS011;42463;52.214;21.238;2023-04-01T02:10:39;17.10;;;10.70;;
56581;SDS011;42463;52.214;21.238;2023-04-01T02:12:49;15.90;;;9.40;;
56581;SDS011;42463;52.214;21.238;2023-04-01T02:15:01;16.50;;;10.30;;
56581;SDS011;42463;52.214;21.238;2023-04-01T02:17:13;14.90;;;9.90;;
56581;SDS011;42463;52.214;21.238;2023-04-01T02:19:21;18.00;;;11.00;;
56581;SDS011;42463;52.214;21.238;2023-04-01T02:21:29;14.90;;;9.90;;
56581;SDS011;42463;52.214;21.238;2023-04-01T02:23:37;18.90;;;10.80;;
56581;SDS011;42463;52.214;21.238;2023-04-01T02:25:44;19.60;;;11.10;;
56581;SDS011;42463;52.214;21.238;2023-04-01T02:27:50;17.30;;;11.50;;
56581;SDS011;42463;52.214;21.238;2023-04-01T02:29:58;21.80;;;11.90;;
56581;SDS011;42463;52.214;21.238;2023-04-01T02:32:04;18.00;;;11.10;;
56581;SDS011;42463;52.214;21.238;2023-04-01T02:34:12;16.70;;;11.40;;
56581;SDS011;42463;52.214;21.238;2023-04-01T02:36:18;17.10;;;11.60;;
56581;SDS011;42463;52.214;21.238;2023-04-01T02:38:24;16.00;;;11.10;;
56581;SDS011;42463;52.214;21.238;2023-04-01T02:40:40;17.70;;;11.20;;
56581;SDS011;42463;52.214;21.238;2023-04-01T02:42:46;19.40;;;11.50;;
56581;SDS011;42463;52.214;21.238;2023-04-01T02:44:52;18.70;;;11.90;;
56581;SDS011;42463;52.214;21.238;2023-04-01T02:46:57;16.30;;;11.30;;
56581;SDS011;42463;52.214;21.238;2023-04-01T02:49:02;18.30;;;11.70;;
56581;SDS011;42463;52.214;21.238;2023-04-01T02:51:09;18.10;;;11.50;;
56581;SDS011;42463;52.214;21.238;2023-04-01T02:53:14;16.90;;;11.00;;
56581;SDS011;42463;52.214;21.238;2023-04-01T02:55:20;17.40;;;11.00;;
56581;SDS011;42463;52.214;21.238;2023-04-01T02:57:26;17.70;;;12.20;;
56581;SDS011;42463;52.214;21.238;2023-04-01T02:59:31;17.10;;;10.40;;
56581;SDS011;42463;52.214;21.238;2023-04-01T03:01:37;19.50;;;11.80;;
56581;SDS011;42463;52.214;21.238;2023-04-01T03:03:43;16.40;;;11.10;;
56581;SDS011;42463;52.214;21.238;2023-04-01T03:05:49;24.20;;;12.80;;
56581;SDS011;42463;52.214;21.238;2023-04-01T03:07:55;19.20;;;12.50;;
56581;SDS011;42463;52.214;21.238;2023-04-01T03:10:01;18.10;;;10.70;;
56581;SDS011;42463;52.214;21.238;2023-04-01T03:12:07;17.00;;;11.50;;
56581;SDS011;42463;52.214;21.238;2023-04-01T03:14:16;19.60;;;12.20;;
56581;SDS011;42463;52.214;21.238;2023-04-01T03:16:23;18.10;;;11.90;;
56581;SDS011;42463;52.214;21.238;2023-04-01T03:18:28;18.20;;;11.70;;
56581;SDS011;42463;52.214;21.238;2023-04-01T03:20:34;25.30;;;13.10;;
56581;SDS011;42463;52.214;21.238;2023-04-01T03:22:39;20.00;;;12.00;;
56581;SDS011;42463;52.214;21.238;2023-04-01T03:24:44;17.50;;;12.20;;
56581;SDS011;42463;52.214;21.238;2023-04-01T03:26:50;19.70;;;11.70;;
56581;SDS011;42463;52.214;21.238;2023-04-01T03:28:56;20.10;;;12.40;;
56581;SDS011;42463;52.214;21.238;2023-04-01T03:31:01;17.10;;;11.60;;
56581;SDS011;42463;52.214;21.238;2023-04-01T03:33:08;19.50;;;11.70;;
56581;SDS011;42463;52.214;21.238;2023-04-01T03:35:14;20.10;;;12.50;;
56581;SDS011;42463;52.214;21.238;2023-04-01T03:37:19;16.80;;;11.60;;
56581;SDS011;42463;52.214;21.238;2023-04-01T03:39:27;20.10;;;12.30;;
56581;SDS011;42463;52.214;21.238;2023-04-01T03:41:32;19.10;;;12.80;;
56581;SDS011;42463;52.214;21.238;2023-04-01T03:43:41;21.70;;;13.50;;
56581;SDS011;42463;52.214;21.238;2023-04-01T03:45:48;20.10;;;12.20;;
56581;SDS011;42463;52.214;21.238;2023-04-01T03:47:55;21.90;;;13.30;;
56581;SDS011;42463;52.214;21.238;2023-04-01T03:50:00;18.80;;;12.80;;
56581;SDS011;42463;52.214;21.238;2023-04-01T03:52:08;19.40;;;12.90;;
56581;SDS011;42463;52.214;21.238;2023-04-01T03:54:15;22.20;;;13.80;;
56581;SDS011;42463;52.214;21.238;2023-04-01T03:56:23;22.20;;;13.70;;
56581;SDS011;42463;52.214;21.238;2023-04-01T03:58:29;20.10;;;12.60;;
56581;SDS011;42463;52.214;21.238;2023-04-01T04:00:38;21.50;;;13.70;;
56581;SDS011;42463;52.214;21.238;2023-04-01T04:02:44;23.90;;;14.40;;
56581;SDS011;42463;52.214;21.238;2023-04-01T04:04:51;21.30;;;13.30;;
56581;SDS011;42463;52.214;21.238;2023-04-01T04:06:57;21.30;;;13.20;;
56581;SDS011;42463;52.214;21.238;2023-04-01T04:09:03;23.40;;;15.00;;
56581;SDS011;42463;52.214;21.238;2023-04-01T04:11:08;22.50;;;13.50;;
56581;SDS011;42463;52.214;21.238;2023-04-01T04:13:16;19.40;;;13.20;;
56581;SDS011;42463;52.214;21.238;2023-04-01T04:15:26;20.50;;;13.80;;
56581;SDS011;42463;52.214;21.238;2023-04-01T04:17:32;22.90;;;14.60;;
56581;SDS011;42463;52.214;21.238;2023-04-01T04:19:38;22.20;;;14.00;;
56581;SDS011;42463;52.214;21.238;2023-04-01T04:21:43;22.70;;;14.10;;
56581;SDS011;42463;52.214;21.238;2023-04-01T04:23:50;21.40;;;13.70;;
56581;SDS011;42463;52.214;21.238;2023-04-01T04:25:57;19.60;;;13.10;;
56581;SDS011;42463;52.214;21.238;2023-04-01T04:28:04;22.20;;;14.00;;
56581;SDS011;42463;52.214;21.238;2023-04-01T04:30:11;28.50;;;14.80;;
56581;SDS011;42463;52.214;21.238;2023-04-01T04:32:17;23.80;;;15.20;;
56581;SDS011;42463;52.214;21.238;2023-04-01T04:34:22;19.20;;;13.20;;
56581;SDS011;42463;52.214;21.238;2023-04-01T04:36:28;20.70;;;13.90;;
56581;SDS011;42463;52.214;21.238;2023-04-01T04:38:34;23.90;;;14.40;;
56581;SDS011;42463;52.214;21.238;2023-04-01T04:40:39;21.30;;;14.10;;
56581;SDS011;42463;52.214;21.238;2023-04-01T04:42:46;19.00;;;13.70;;
56581;SDS011;42463;52.214;21.238;2023-04-01T04:44:52;21.00;;;14.00;;
56581;SDS011;42463;52.214;21.238;2023-04-01T04:46:58;20.20;;;13.30;;
56581;SDS011;42463;52.214;21.238;2023-04-01T04:49:03;24.10;;;14.50;;
56581;SDS011;42463;52.214;21.238;2023-04-01T04:51:11;22.10;;;14.00;;
56581;SDS011;42463;52.214;21.238;2023-04-01T04:53:19;23.70;;;13.50;;
56581;SDS011;42463;52.214;21.238;2023-04-01T04:55:25;21.70;;;14.30;;
56581;SDS011;42463;52.214;21.238;2023-04-01T04:59:53;21.40;;;13.60;;
56581;SDS011;42463;52.214;21.238;2023-04-01T05:02:09;24.60;;;14.50;;
56581;SDS011;42463;52.214;21.238;2023-04-01T05:04:14;20.90;;;13.20;;
56581;SDS011;42463;52.214;21.238;2023-04-01T05:06:20;22.60;;;14.10;;
56581;SDS011;42463;52.214;21.238;2023-04-01T05:08:26;23.40;;;14.60;;
56581;SDS011;42463;52.214;21.238;2023-04-01T05:10:32;20.70;;;13.50;;
56581;SDS011;42463;52.214;21.238;2023-04-01T05:12:38;21.40;;;13.60;;
56581;SDS011;42463;52.214;21.238;2023-04-01T05:14:45;22.20;;;13.90;;
56581;SDS011;42463;52.214;21.238;2023-04-01T05:16:51;21.00;;;13.50;;
56581;SDS011;42463;52.214;21.238;2023-04-01T05:18:56;18.10;;;12.50;;
56581;SDS011;42463;52.214;21.238;2023-04-01T05:21:02;19.80;;;13.00;;
56581;SDS011;42463;52.214;21.238;2023-04-01T05:23:08;17.70;;;12.30;;
56581;SDS011;42463;52.214;21.238;2023-04-01T05:25:15;20.10;;;12.80;;
56581;SDS011;42463;52.214;21.238;2023-04-01T05:27:20;19.80;;;13.00;;
56581;SDS011;42463;52.214;21.238;2023-04-01T05:29:26;19.60;;;13.10;;
56581;SDS011;42463;52.214;21.238;2023-04-01T05:31:38;18.40;;;12.30;;
56581;SDS011;42463;52.214;21.238;2023-04-01T05:33:44;18.60;;;12.60;;
56581;SDS011;42463;52.214;21.238;2023-04-01T05:35:49;19.70;;;12.40;;
56581;SDS011;42463;52.214;21.238;2023-04-01T05:37:55;18.70;;;12.40;;
56581;SDS011;42463;52.214;21.238;2023-04-01T05:40:00;18.60;;;11.60;;
56581;SDS011;42463;52.214;21.238;2023-04-01T05:42:07;21.00;;;12.90;;
56581;SDS011;42463;52.214;21.238;2023-04-01T05:44:12;20.70;;;12.40;;
56581;SDS011;42463;52.214;21.238;2023-04-01T05:46:18;20.70;;;12.30;;
56581;SDS011;42463;52.214;21.238;2023-04-01T05:48:30;19.00;;;11.90;;
56581;SDS011;42463;52.214;21.238;2023-04-01T05:50:36;17.00;;;12.20;;
56581;SDS011;42463;52.214;21.238;2023-04-01T05:52:43;20.80;;;12.40;;
56581;SDS011;42463;52.214;21.238;2023-04-01T05:54:49;19.20;;;12.30;;
56581;SDS011;42463;52.214;21.238;2023-04-01T05:56:54;18.90;;;12.10;;
56581;SDS011;42463;52.214;21.238;2023-04-01T05:59:00;16.90;;;10.90;;
56581;SDS011;42463;52.214;21.238;2023-04-01T06:01:06;15.00;;;11.50;;
56581;SDS011;42463;52.214;21.238;2023-04-01T06:03:13;17.70;;;11.70;;
56581;SDS011;42463;52.214;21.238;2023-04-01T06:05:19;14.30;;;10.00;;
56581;SDS011;42463;52.214;21.238;2023-04-01T06:07:26;14.60;;;10.20;;
56581;SDS011;42463;52.214;21.238;2023-04-01T06:09:33;15.90;;;10.30;;
56581;SDS011;42463;52.214;21.238;2023-04-01T06:11:40;16.90;;;10.30;;
56581;SDS011;42463;52.214;21.238;2023-04-01T06:14:03;15.30;;;9.70;;
56581;SDS011;42463;52.214;21.238;2023-04-01T06:16:24;15.70;;;9.60;;
56581;SDS011;42463;52.214;21.238;2023-04-01T06:18:50;12.20;;;8.90;;
56581;SDS011;42463;52.214;21.238;2023-04-01T06:21:09;14.30;;;9.10;;
56581;SDS011;42463;52.214;21.238;2023-04-01T06:23:38;13.60;;;9.10;;
56581;SDS011;42463;52.214;21.238;2023-04-01T06:25:55;13.60;;;9.20;;
56581;SDS011;42463;52.214;21.238;2023-04-01T06:28:20;15.10;;;10.00;;
56581;SDS011;42463;52.214;21.238;2023-04-01T06:30:45;15.40;;;9.20;;
56581;SDS011;42463;52.214;21.238;2023-04-01T06:33:02;12.90;;;9.40;;
56581;SDS011;42463;52.214;21.238;2023-04-01T06:35:34;13.20;;;8.60;;
56581;SDS011;42463;52.214;21.238;2023-04-01T06:37:52;12.80;;;8.90;;
56581;SDS011;42463;52.214;21.238;2023-04-01T06:40:36;13.90;;;8.70;;
56581;SDS011;42463;52.214;21.238;2023-04-01T06:42:55;12.60;;;8.50;;
56581;SDS011;42463;52.214;21.238;2023-04-01T06:45:30;12.60;;;8.70;;
56581;SDS011;42463;52.214;21.238;2023-04-01T06:48:03;9.30;;;6.60;;
56581;SDS011;42463;52.214;21.238;2023-04-01T06:50:51;11.70;;;8.00;;
56581;SDS011;42463;52.214;21.238;2023-04-01T06:53:42;9.40;;;6.10;;
56581;SDS011;42463;52.214;21.238;2023-04-01T06:56:16;13.00;;;8.90;;
56581;SDS011;42463;52.214;21.238;2023-04-01T06:58:31;8.50;;;7.00;;
56581;SDS011;42463;52.214;21.238;2023-04-01T07:00:42;12.80;;;7.70;;
56581;SDS011;42463;52.214;21.238;2023-04-01T07:02:50;10.80;;;7.80;;
56581;SDS011;42463;52.214;21.238;2023-04-01T07:05:04;10.60;;;7.70;;
56581;SDS011;42463;52.214;21.238;2023-04-01T07:07:12;12.00;;;8.50;;
56581;SDS011;42463;52.214;21.238;2023-04-01T07:09:32;13.60;;;9.00;;
56581;SDS011;42463;52.214;21.238;2023-04-01T07:12:15;12.90;;;8.30;;
56581;SDS011;42463;52.214;21.238;2023-04-01T07:14:52;12.00;;;9.10;;
56581;SDS011;42463;52.214;21.238;2023-04-01T07:17:00;13.80;;;10.20;;
56581;SDS011;42463;52.214;21.238;2023-04-01T07:19:14;15.70;;;10.80;;
56581;SDS011;42463;52.214;21.238;2023-04-01T07:21:45;14.90;;;11.10;;
56581;SDS011;42463;52.214;21.238;2023-04-01T07:24:01;17.70;;;12.00;;
56581;SDS011;42463;52.214;21.238;2023-04-01T07:26:17;16.50;;;11.50;;
56581;SDS011;42463;52.214;21.238;2023-04-01T07:28:31;16.40;;;11.20;;
56581;SDS011;42463;52.214;21.238;2023-04-01T07:30:49;14.30;;;9.70;;
56581;SDS011;42463;52.214;21.238;2023-04-01T07:33:06;18.70;;;12.50;;
56581;SDS011;42463;52.214;21.238;2023-04-01T07:35:20;17.80;;;12.60;;
56581;SDS011;42463;52.214;21.238;2023-04-01T07:37:35;18.80;;;12.70;;
56581;SDS011;42463;52.214;21.238;2023-04-01T07:39:51;18.00;;;12.60;;
56581;SDS011;42463;52.214;21.238;2023-04-01T07:42:14;17.80;;;12.40;;
56581;SDS011;42463;52.214;21.238;2023-04-01T07:44:31;15.80;;;11.30;;
56581;SDS011;42463;52.214;21.238;2023-04-01T07:46:48;16.50;;;12.00;;
56581;SDS011;42463;52.214;21.238;2023-04-01T07:49:01;13.60;;;10.30;;
56581;SDS011;42463;52.214;21.238;2023-04-01T07:51:13;18.90;;;11.80;;
56581;SDS011;42463;52.214;21.238;2023-04-01T07:53:25;14.20;;;11.00;;
56581;SDS011;42463;52.214;21.238;2023-04-01T07:55:39;14.20;;;10.60;;
56581;SDS011;42463;52.214;21.238;2023-04-01T07:57:51;14.20;;;10.20;;
56581;SDS011;42463;52.214;21.238;2023-04-01T08:02:21;13.50;;;9.20;;
56581;SDS011;42463;52.214;21.238;2023-04-01T08:04:41;13.00;;;8.70;;
56581;SDS011;42463;52.214;21.238;2023-04-01T08:06:58;11.60;;;9.50;;
56581;SDS011;42463;52.214;21.238;2023-04-01T08:09:14;17.10;;;11.20;;
56581;SDS011;42463;52.214;21.238;2023-04-01T08:11:52;14.40;;;10.70;;
56581;SDS011;42463;52.214;21.238;2023-04-01T08:14:39;14.70;;;10.50;;
56581;SDS011;42463;52.214;21.238;2023-04-01T08:17:10;16.20;;;11.10;;
56581;SDS011;42463;52.214;21.238;2023-04-01T08:19:25;16.90;;;12.30;;
56581;SDS011;42463;52.214;21.238;2023-04-01T08:21:43;18.40;;;12.10;;
56581;SDS011;42463;52.214;21.238;2023-04-01T08:23:52;19.10;;;13.20;;
56581;SDS011;42463;52.214;21.238;2023-04-01T08:26:02;18.20;;;12.80;;
56581;SDS011;42463;52.214;21.238;2023-04-01T08:28:17;19.60;;;13.10;;
56581;SDS011;42463;52.214;21.238;2023-04-01T08:30:30;19.60;;;13.90;;
56581;SDS011;42463;52.214;21.238;2023-04-01T08:32:44;19.70;;;14.70;;
56581;SDS011;42463;52.214;21.238;2023-04-01T08:34:58;16.00;;;11.80;;
56581;SDS011;42463;52.214;21.238;2023-04-01T08:37:14;14.70;;;11.30;;
56581;SDS011;42463;52.214;21.238;2023-04-01T08:39:24;15.60;;;11.70;;
56581;SDS011;42463;52.214;21.238;2023-04-01T08:41:50;14.90;;;10.40;;
56581;SDS011;42463;52.214;21.238;2023-04-01T08:44:39;13.70;;;10.00;;
56581;SDS011;42463;52.214;21.238;2023-04-01T08:49:26;16.50;;;11.90;;
56581;SDS011;42463;52.214;21.238;2023-04-01T08:51:53;13.90;;;10.70;;
56581;SDS011;42463;52.214;21.238;2023-04-01T08:54:24;17.00;;;12.10;;
56581;SDS011;42463;52.214;21.238;2023-04-01T08:56:42;17.40;;;12.50;;
56581;SDS011;42463;52.214;21.238;2023-04-01T08:59:11;17.10;;;12.50;;
56581;SDS011;42463;52.214;21.238;2023-04-01T09:01:33;18.30;;;12.70;;
56581;SDS011;42463;52.214;21.238;2023-04-01T09:04:08;16.00;;;10.90;;
56581;SDS011;42463;52.214;21.238;2023-04-01T09:09:09;14.70;;;9.90;;
56581;SDS011;42463;52.214;21.238;2023-04-01T09:11:46;16.10;;;10.00;;
56581;SDS011;42463;52.214;21.238;2023-04-01T09:14:25;11.70;;;9.20;;
56581;SDS011;42463;52.214;21.238;2023-04-01T09:19:42;11.10;;;8.40;;
56581;SDS011;42463;52.214;21.238;2023-04-01T09:27:07;10.20;;;7.10;;
56581;SDS011;42463;52.214;21.238;2023-04-01T09:29:21;11.80;;;7.60;;
56581;SDS011;42463;52.214;21.238;2023-04-01T09:31:42;10.90;;;7.90;;
56581;SDS011;42463;52.214;21.238;2023-04-01T09:34:26;11.90;;;9.20;;
56581;SDS011;42463;52.214;21.238;2023-04-01T09:36:43;13.40;;;9.30;;
56581;SDS011;42463;52.214;21.238;2023-04-01T09:41:01;11.60;;;8.80;;
56581;SDS011;42463;52.214;21.238;2023-04-01T09:43:28;11.60;;;8.30;;
56581;SDS011;42463;52.214;21.238;2023-04-01T09:45:46;14.00;;;8.40;;
56581;SDS011;42463;52.214;21.238;2023-04-01T09:48:02;12.40;;;8.80;;
56581;SDS011;42463;52.214;21.238;2023-04-01T09:50:23;12.30;;;8.80;;
56581;SDS011;42463;52.214;21.238;2023-04-01T09:52:38;10.10;;;7.60;;
56581;SDS011;42463;52.214;21.238;2023-04-01T09:55:04;12.00;;;7.50;;
56581;SDS011;42463;52.214;21.238;2023-04-01T10:00:39;7.10;;;5.70;;
56581;SDS011;42463;52.214;21.238;2023-04-01T10:08:38;4.50;;;3.40;;
56581;SDS011;42463;52.214;21.238;2023-04-01T10:11:05;7.20;;;4.50;;
56581;SDS011;42463;52.214;21.238;2023-04-01T10:13:40;6.00;;;4.20;;
56581;SDS011;42463;52.214;21.238;2023-04-01T10:16:22;5.90;;;4.30;;
56581;SDS011;42463;52.214;21.238;2023-04-01T10:18:46;6.70;;;5.10;;
56581;SDS011;42463;52.214;21.238;2023-04-01T10:21:08;5.90;;;4.20;;
56581;SDS011;42463;52.214;21.238;2023-04-01T10:23:34;5.60;;;4.60;;
56581;SDS011;42463;52.214;21.238;2023-04-01T10:26:03;8.30;;;5.90;;
56581;SDS011;42463;52.214;21.238;2023-04-01T10:28:36;8.30;;;6.20;;
56581;SDS011;42463;52.214;21.238;2023-04-01T10:33:45;5.40;;;4.10;;
56581;SDS011;42463;52.214;21.238;2023-04-01T10:39:01;3.90;;;2.60;;
56581;SDS011;42463;52.214;21.238;2023-04-01T10:41:37;3.70;;;3.00;;
56581;SDS011;42463;52.214;21.238;2023-04-01T10:44:29;3.60;;;3.00;;
56581;SDS011;42463;52.214;21.238;2023-04-01T10:47:19;3.60;;;2.80;;
56581;SDS011;42463;52.214;21.238;2023-04-01T10:50:04;3.50;;;2.70;;
56581;SDS011;42463;52.214;21.238;2023-04-01T10:52:26;3.60;;;2.80;;
56581;SDS011;42463;52.214;21.238;2023-04-01T10:54:57;3.60;;;2.40;;
56581;SDS011;42463;52.214;21.238;2023-04-01T10:57:42;3.10;;;2.20;;
56581;SDS011;42463;52.214;21.238;2023-04-01T11:00:20;4.50;;;3.00;;
56581;SDS011;42463;52.214;21.238;2023-04-01T11:03:18;3.60;;;3.00;;
56581;SDS011;42463;52.214;21.238;2023-04-01T11:06:16;3.20;;;2.40;;
56581;SDS011;42463;52.214;21.238;2023-04-01T11:19:49;5.20;;;3.70;;
56581;SDS011;42463;52.214;21.238;2023-04-01T11:22:12;5.70;;;4.10;;
56581;SDS011;42463;52.214;21.238;2023-04-01T11:24:38;6.60;;;3.80;;
56581;SDS011;42463;52.214;21.238;2023-04-01T11:30:00;6.10;;;4.70;;
56581;SDS011;42463;52.214;21.238;2023-04-01T11:32:18;4.80;;;3.80;;
56581;SDS011;42463;52.214;21.238;2023-04-01T11:37:01;5.10;;;4.10;;
56581;SDS011;42463;52.214;21.238;2023-04-01T11:39:31;4.50;;;3.30;;
56581;SDS011;42463;52.214;21.238;2023-04-01T11:42:19;4.30;;;3.20;;
56581;SDS011;42463;52.214;21.238;2023-04-01T11:45:00;5.20;;;3.60;;
56581;SDS011;42463;52.214;21.238;2023-04-01T11:47:27;5.20;;;4.10;;
56581;SDS011;42463;52.214;21.238;2023-04-01T11:49:51;5.50;;;4.60;;
56581;SDS011;42463;52.214;21.238;2023-04-01T11:54:52;4.40;;;4.00;;
56581;SDS011;42463;52.214;21.238;2023-04-01T11:57:13;6.70;;;4.60;;
56581;SDS011;42463;52.214;21.238;2023-04-01T12:02:18;4.70;;;3.80;;
56581;SDS011;42463;52.214;21.238;2023-04-01T12:04:36;4.90;;;4.40;;
56581;SDS011;42463;52.214;21.238;2023-04-01T12:06:59;6.20;;;4.40;;
56581;SDS011;42463;52.214;21.238;2023-04-01T12:09:12;6.60;;;4.40;;
56581;SDS011;42463;52.214;21.238;2023-04-01T12:11:25;4.60;;;3.90;;
56581;SDS011;42463;52.214;21.238;2023-04-01T12:13:42;5.00;;;3.70;;
56581;SDS011;42463;52.214;21.238;2023-04-01T12:15:56;4.80;;;3.60;;
56581;SDS011;42463;52.214;21.238;2023-04-01T12:18:17;5.80;;;3.80;;
56581;SDS011;42463;52.214;21.238;2023-04-01T12:20:33;4.40;;;3.50;;
56581;SDS011;42463;52.214;21.238;2023-04-01T12:22:49;4.90;;;3.70;;
56581;SDS011;42463;52.214;21.238;2023-04-01T12:25:11;4.40;;;3.70;;
56581;SDS011;42463;52.214;21.238;2023-04-01T12:27:39;5.70;;;3.50;;
56581;SDS011;42463;52.214;21.238;2023-04-01T12:29:51;4.70;;;4.10;;
56581;SDS011;42463;52.214;21.238;2023-04-01T12:32:12;4.50;;;3.60;;
56581;SDS011;42463;52.214;21.238;2023-04-01T12:34:33;6.30;;;4.40;;
56581;SDS011;42463;52.214;21.238;2023-04-01T12:36:59;5.40;;;4.10;;
56581;SDS011;42463;52.214;21.238;2023-04-01T12:41:44;7.60;;;4.20;;
56581;SDS011;42463;52.214;21.238;2023-04-01T12:43:59;5.80;;;4.20;;
56581;SDS011;42463;52.214;21.238;2023-04-01T12:46:18;7.40;;;4.90;;
56581;SDS011;42463;52.214;21.238;2023-04-01T12:48:45;7.90;;;5.10;;
56581;SDS011;42463;52.214;21.238;2023-04-01T12:53:59;6.90;;;4.80;;
56581;SDS011;42463;52.214;21.238;2023-04-01T12:56:23;6.10;;;5.20;;
56581;SDS011;42463;52.214;21.238;2023-04-01T12:58:56;10.90;;;5.60;;
56581;SDS011;42463;52.214;21.238;2023-04-01T13:01:40;6.30;;;5.50;;
56581;SDS011;42463;52.214;21.238;2023-04-01T13:04:05;6.80;;;5.00;;
56581;SDS011;42463;52.214;21.238;2023-04-01T13:06:29;8.40;;;5.90;;
56581;SDS011;42463;52.214;21.238;2023-04-01T13:08:44;7.10;;;5.30;;
56581;SDS011;42463;52.214;21.238;2023-04-01T13:11:02;6.40;;;5.00;;
56581;SDS011;42463;52.214;21.238;2023-04-01T13:15:50;4.10;;;3.30;;
56581;SDS011;42463;52.214;21.238;2023-04-01T13:18:05;4.00;;;3.30;;
56581;SDS011;42463;52.214;21.238;2023-04-01T13:20:23;4.30;;;3.60;;
56581;SDS011;42463;52.214;21.238;2023-04-01T13:22:45;3.60;;;3.10;;
56581;SDS011;42463;52.214;21.238;2023-04-01T13:25:01;4.30;;;3.30;;
56581;SDS011;42463;52.214;21.238;2023-04-01T13:27:14;3.70;;;2.70;;
56581;SDS011;42463;52.214;21.238;2023-04-01T13:29:25;4.50;;;2.60;;
56581;SDS011;42463;52.214;21.238;2023-04-01T13:31:38;3.20;;;2.20;;
56581;SDS011;42463;52.214;21.238;2023-04-01T13:33:56;2.90;;;2.40;;
56581;SDS011;42463;52.214;21.238;2023-04-01T13:36:16;2.40;;;2.20;;
56581;SDS011;42463;52.214;21.238;2023-04-01T13:38:36;2.80;;;2.40;;
56581;SDS011;42463;52.214;21.238;2023-04-01T13:40:52;2.20;;;2.00;;
56581;SDS011;42463;52.214;21.238;2023-04-01T13:43:07;4.40;;;2.70;;
56581;SDS011;42463;52.214;21.238;2023-04-01T13:45:21;2.80;;;2.30;;
56581;SDS011;42463;52.214;21.238;2023-04-01T13:47:35;3.00;;;2.50;;
56581;SDS011;42463;52.214;21.238;2023-04-01T13:50:06;3.80;;;2.10;;
56581;SDS011;42463;52.214;21.238;2023-04-01T13:54:52;3.90;;;2.60;;
56581;SDS011;42463;52.214;21.238;2023-04-01T13:57:17;2.50;;;2.10;;
56581;SDS011;42463;52.214;21.238;2023-04-01T13:59:40;4.40;;;2.30;;
56581;SDS011;42463;52.214;21.238;2023-04-01T14:02:02;4.30;;;2.70;;
56581;SDS011;42463;52.214;21.238;2023-04-01T14:06:59;4.20;;;2.70;;
56581;SDS011;42463;52.214;21.238;2023-04-01T14:09:21;3.00;;;2.50;;
56581;SDS011;42463;52.214;21.238;2023-04-01T14:11:40;4.00;;;2.70;;
56581;SDS011;42463;52.214;21.238;2023-04-01T14:13:59;4.10;;;3.00;;
56581;SDS011;42463;52.214;21.238;2023-04-01T14:16:19;3.80;;;2.70;;
56581;SDS011;42463;52.214;21.238;2023-04-01T14:18:52;3.30;;;2.40;;
56581;SDS011;42463;52.214;21.238;2023-04-01T14:21:10;2.80;;;2.30;;
56581;SDS011;42463;52.214;21.238;2023-04-01T14:23:39;2.80;;;1.90;;
56581;SDS011;42463;52.214;21.238;2023-04-01T14:25:58;3.00;;;1.80;;
56581;SDS011;42463;52.214;21.238;2023-04-01T14:28:20;2.50;;;1.80;;
56581;SDS011;42463;52.214;21.238;2023-04-01T14:30:40;2.90;;;2.20;;